sensor_id;sensor_type;location;lat;lon;timestamp;temperature;humidity
7427;DHT22;3755;59.316;18.092;2023-08-06T00:02:12;14.60;99.90
7427;DHT22;3755;59.316;18.092;2023-08-06T00:04:40;14.60;99.90
7427;DHT22;3755;59.316;18.092;2023-08-06T00:07:08;14.60;99.90
7427;DHT22;3755;59.316;18.092;2023-08-06T00:09:35;14.60;99.90
7427;DHT22;3755;59.316;18.092;2023-08-06T00:12:03;14.60;99.90
7427;DHT22;3755;59.316;18.092;2023-08-06T00:14:30;14.50;99.90
7427;DHT22;3755;59.316;18.092;2023-08-06T00:16:57;14.50;99.90
7427;DHT22;3755;59.316;18.092;2023-08-06T00:19:24;14.40;99.90
7427;DHT22;3755;59.316;18.092;2023-08-06T00:21:51;14.40;99.90
7427;DHT22;3755;59.316;18.092;2023-08-06T00:24:20;14.40;99.90
7427;DHT22;3755;59.316;18.092;2023-08-06T00:26:47;14.30;99.90
7427;DHT22;3755;59.316;18.092;2023-08-06T00:29:14;14.30;99.90
7427;DHT22;3755;59.316;18.092;2023-08-06T00:31:41;14.30;99.90
7427;DHT22;3755;59.316;18.092;2023-08-06T00:34:08;14.40;99.90
7427;DHT22;3755;59.316;18.092;2023-08-06T00:36:35;14.40;99.90
7427;DHT22;3755;59.316;18.092;2023-08-06T00:39:02;14.40;99.90
7427;DHT22;3755;59.316;18.092;2023-08-06T00:41:31;14.40;99.90
7427;DHT22;3755;59.316;18.092;2023-08-06T00:43:58;14.40;99.90
7427;DHT22;3755;59.316;18.092;2023-08-06T00:46:25;14.40;99.90
7427;DHT22;3755;59.316;18.092;2023-08-06T00:48:53;14.40;99.90
7427;DHT22;3755;59.316;18.092;2023-08-06T00:51:20;14.30;99.90
7427;DHT22;3755;59.316;18.092;2023-08-06T00:53:48;14.30;99.90
7427;DHT22;3755;59.316;18.092;2023-08-06T00:56:16;14.20;99.90
7427;DHT22;3755;59.316;18.092;2023-08-06T00:58:45;14.20;99.90
7427;DHT22;3755;59.316;18.092;2023-08-06T01:01:12;14.20;99.90
7427;DHT22;3755;59.316;18.092;2023-08-06T01:03:39;14.30;99.90
7427;DHT22;3755;59.316;18.092;2023-08-06T01:06:07;14.30;99.90
7427;DHT22;3755;59.316;18.092;2023-08-06T01:08:40;14.50;99.90
7427;DHT22;3755;59.316;18.092;2023-08-06T01:11:20;14.30;99.90
7427;DHT22;3755;59.316;18.092;2023-08-06T01:13:56;14.40;99.90
7427;DHT22;3755;59.316;18.092;2023-08-06T01:16:25;14.30;99.90
7427;DHT22;3755;59.316;18.092;2023-08-06T01:18:52;14.30;99.90
7427;DHT22;3755;59.316;18.092;2023-08-06T01:21:21;14.30;99.90
7427;DHT22;3755;59.316;18.092;2023-08-06T01:23:48;14.40;99.90
7427;DHT22;3755;59.316;18.092;2023-08-06T01:26:22;14.40;99.90
7427;DHT22;3755;59.316;18.092;2023-08-06T01:28:54;14.40;99.90
7427;DHT22;3755;59.316;18.092;2023-08-06T01:31:26;14.40;99.90
7427;DHT22;3755;59.316;18.092;2023-08-06T01:33:54;14.40;99.90
7427;DHT22;3755;59.316;18.092;2023-08-06T01:36:25;14.30;99.90
7427;DHT22;3755;59.316;18.092;2023-08-06T01:38:52;14.30;99.90
7427;DHT22;3755;59.316;18.092;2023-08-06T01:41:20;14.20;99.90
7427;DHT22;3755;59.316;18.092;2023-08-06T01:43:47;14.10;99.90
7427;DHT22;3755;59.316;18.092;2023-08-06T01:46:14;14.00;99.90
7427;DHT22;3755;59.316;18.092;2023-08-06T01:48:41;13.90;99.90
7427;DHT22;3755;59.316;18.092;2023-08-06T01:51:08;13.90;99.90
7427;DHT22;3755;59.316;18.092;2023-08-06T01:53:37;13.80;99.90
7427;DHT22;3755;59.316;18.092;2023-08-06T01:56:04;13.80;99.90
7427;DHT22;3755;59.316;18.092;2023-08-06T01:58:31;13.80;99.90
7427;DHT22;3755;59.316;18.092;2023-08-06T02:00:58;13.70;99.90
7427;DHT22;3755;59.316;18.092;2023-08-06T02:03:25;13.70;99.90
7427;DHT22;3755;59.316;18.092;2023-08-06T02:05:53;13.60;99.90
7427;DHT22;3755;59.316;18.092;2023-08-06T02:08:20;13.60;99.90
7427;DHT22;3755;59.316;18.092;2023-08-06T02:10:48;13.70;99.90
7427;DHT22;3755;59.316;18.092;2023-08-06T02:13:15;13.70;99.90
7427;DHT22;3755;59.316;18.092;2023-08-06T02:15:43;13.70;99.90
7427;DHT22;3755;59.316;18.092;2023-08-06T02:18:10;13.70;99.90
7427;DHT22;3755;59.316;18.092;2023-08-06T02:20:37;13.70;99.90
7427;DHT22;3755;59.316;18.092;2023-08-06T02:23:04;13.70;99.90
7427;DHT22;3755;59.316;18.092;2023-08-06T02:25:31;13.70;99.90
7427;DHT22;3755;59.316;18.092;2023-08-06T02:28:00;13.70;99.90
7427;DHT22;3755;59.316;18.092;2023-08-06T02:30:27;13.60;99.90
7427;DHT22;3755;59.316;18.092;2023-08-06T02:32:54;13.60;99.90
7427;DHT22;3755;59.316;18.092;2023-08-06T02:35:22;13.60;99.90
7427;DHT22;3755;59.316;18.092;2023-08-06T02:37:49;13.60;99.90
7427;DHT22;3755;59.316;18.092;2023-08-06T02:40:16;13.50;99.90
7427;DHT22;3755;59.316;18.092;2023-08-06T02:42:43;13.50;99.90
7427;DHT22;3755;59.316;18.092;2023-08-06T02:45:12;13.50;99.90
7427;DHT22;3755;59.316;18.092;2023-08-06T02:47:39;13.50;99.90
7427;DHT22;3755;59.316;18.092;2023-08-06T02:50:07;13.50;99.90
7427;DHT22;3755;59.316;18.092;2023-08-06T02:52:34;13.40;99.90
7427;DHT22;3755;59.316;18.092;2023-08-06T02:55:01;13.40;99.90
7427;DHT22;3755;59.316;18.092;2023-08-06T02:57:28;13.40;99.90
7427;DHT22;3755;59.316;18.092;2023-08-06T02:59:55;13.40;99.90
7427;DHT22;3755;59.316;18.092;2023-08-06T03:02:24;13.40;99.90
7427;DHT22;3755;59.316;18.092;2023-08-06T03:04:51;13.40;99.90
7427;DHT22;3755;59.316;18.092;2023-08-06T03:07:18;13.30;99.90
7427;DHT22;3755;59.316;18.092;2023-08-06T03:09:45;13.30;99.90
7427;DHT22;3755;59.316;18.092;2023-08-06T03:12:12;13.30;99.90
7427;DHT22;3755;59.316;18.092;2023-08-06T03:14:40;13.30;99.90
7427;DHT22;3755;59.316;18.092;2023-08-06T03:17:07;13.30;99.90
7427;DHT22;3755;59.316;18.092;2023-08-06T03:19:35;13.40;99.90
7427;DHT22;3755;59.316;18.092;2023-08-06T03:22:02;13.40;99.90
7427;DHT22;3755;59.316;18.092;2023-08-06T03:24:29;13.40;99.90
7427;DHT22;3755;59.316;18.092;2023-08-06T03:26:56;13.50;99.90
7427;DHT22;3755;59.316;18.092;2023-08-06T03:29:24;13.50;99.90
7427;DHT22;3755;59.316;18.092;2023-08-06T03:31:52;13.50;99.90
7427;DHT22;3755;59.316;18.092;2023-08-06T03:34:19;13.60;99.90
7427;DHT22;3755;59.316;18.092;2023-08-06T03:36:47;13.60;99.90
7427;DHT22;3755;59.316;18.092;2023-08-06T03:39:15;13.70;99.90
7427;DHT22;3755;59.316;18.092;2023-08-06T03:41:42;13.70;99.90
7427;DHT22;3755;59.316;18.092;2023-08-06T03:44:09;13.80;99.90
7427;DHT22;3755;59.316;18.092;2023-08-06T03:46:36;13.80;99.90
7427;DHT22;3755;59.316;18.092;2023-08-06T03:49:03;13.90;99.90
7427;DHT22;3755;59.316;18.092;2023-08-06T03:51:30;14.00;99.90
7427;DHT22;3755;59.316;18.092;2023-08-06T03:53:59;14.20;99.90
7427;DHT22;3755;59.316;18.092;2023-08-06T03:56:26;14.70;99.90
7427;DHT22;3755;59.316;18.092;2023-08-06T03:58:53;15.20;99.90
7427;DHT22;3755;59.316;18.092;2023-08-06T04:01:20;15.70;99.90
7427;DHT22;3755;59.316;18.092;2023-08-06T04:03:47;16.30;99.90
7427;DHT22;3755;59.316;18.092;2023-08-06T04:06:14;16.80;99.90
7427;DHT22;3755;59.316;18.092;2023-08-06T04:08:41;17.10;99.90
7427;DHT22;3755;59.316;18.092;2023-08-06T04:11:10;17.10;99.90
7427;DHT22;3755;59.316;18.092;2023-08-06T04:13:38;17.20;99.90
7427;DHT22;3755;59.316;18.092;2023-08-06T04:16:05;17.40;99.90
7427;DHT22;3755;59.316;18.092;2023-08-06T04:18:32;17.80;99.90
7427;DHT22;3755;59.316;18.092;2023-08-06T04:20:59;17.90;99.90
7427;DHT22;3755;59.316;18.092;2023-08-06T04:23:28;17.80;99.90
7427;DHT22;3755;59.316;18.092;2023-08-06T04:25:56;17.60;99.90
7427;DHT22;3755;59.316;18.092;2023-08-06T04:28:25;17.40;99.90
7427;DHT22;3755;59.316;18.092;2023-08-06T04:30:52;17.10;99.90
7427;DHT22;3755;59.316;18.092;2023-08-06T04:33:20;16.90;99.90
7427;DHT22;3755;59.316;18.092;2023-08-06T04:35:47;16.70;99.90
7427;DHT22;3755;59.316;18.092;2023-08-06T04:38:14;16.60;99.90
7427;DHT22;3755;59.316;18.092;2023-08-06T04:40:41;16.50;99.90
7427;DHT22;3755;59.316;18.092;2023-08-06T04:43:08;16.50;99.90
7427;DHT22;3755;59.316;18.092;2023-08-06T04:45:37;16.40;99.90
7427;DHT22;3755;59.316;18.092;2023-08-06T04:48:04;16.40;99.90
7427;DHT22;3755;59.316;18.092;2023-08-06T04:50:31;16.40;99.90
7427;DHT22;3755;59.316;18.092;2023-08-06T04:52:58;16.40;99.90
7427;DHT22;3755;59.316;18.092;2023-08-06T04:55:26;16.40;99.90
7427;DHT22;3755;59.316;18.092;2023-08-06T04:57:53;16.40;99.90
7427;DHT22;3755;59.316;18.092;2023-08-06T05:00:20;16.40;99.90
7427;DHT22;3755;59.316;18.092;2023-08-06T05:02:48;16.50;99.90
7427;DHT22;3755;59.316;18.092;2023-08-06T05:05:15;16.50;99.90
7427;DHT22;3755;59.316;18.092;2023-08-06T05:07:43;16.60;99.90
7427;DHT22;3755;59.316;18.092;2023-08-06T05:10:10;16.70;99.90
7427;DHT22;3755;59.316;18.092;2023-08-06T05:12:37;17.00;99.90
7427;DHT22;3755;59.316;18.092;2023-08-06T05:15:05;17.30;99.90
7427;DHT22;3755;59.316;18.092;2023-08-06T05:17:32;17.70;99.90
7427;DHT22;3755;59.316;18.092;2023-08-06T05:20:01;17.80;99.90
7427;DHT22;3755;59.316;18.092;2023-08-06T05:22:28;17.70;99.90
7427;DHT22;3755;59.316;18.092;2023-08-06T05:24:55;17.40;99.90
7427;DHT22;3755;59.316;18.092;2023-08-06T05:27:22;17.20;99.90
7427;DHT22;3755;59.316;18.092;2023-08-06T05:29:49;17.20;99.90
7427;DHT22;3755;59.316;18.092;2023-08-06T05:32:16;17.10;99.90
7427;DHT22;3755;59.316;18.092;2023-08-06T05:34:43;17.10;99.90
7427;DHT22;3755;59.316;18.092;2023-08-06T05:37:12;16.90;99.90
7427;DHT22;3755;59.316;18.092;2023-08-06T05:39:39;16.70;99.90
7427;DHT22;3755;59.316;18.092;2023-08-06T05:42:06;16.70;99.90
7427;DHT22;3755;59.316;18.092;2023-08-06T05:44:33;16.80;99.90
7427;DHT22;3755;59.316;18.092;2023-08-06T05:47:01;16.70;99.90
7427;DHT22;3755;59.316;18.092;2023-08-06T05:49:28;16.70;99.90
7427;DHT22;3755;59.316;18.092;2023-08-06T05:51:55;16.80;99.90
7427;DHT22;3755;59.316;18.092;2023-08-06T05:54:24;16.90;99.90
7427;DHT22;3755;59.316;18.092;2023-08-06T05:56:51;16.90;99.90
7427;DHT22;3755;59.316;18.092;2023-08-06T05:59:18;17.00;99.90
7427;DHT22;3755;59.316;18.092;2023-08-06T06:01:45;17.10;99.90
7427;DHT22;3755;59.316;18.092;2023-08-06T06:04:12;17.10;99.90
7427;DHT22;3755;59.316;18.092;2023-08-06T06:06:39;17.20;99.90
7427;DHT22;3755;59.316;18.092;2023-08-06T06:09:07;17.10;99.90
7427;DHT22;3755;59.316;18.092;2023-08-06T06:11:35;17.00;99.90
7427;DHT22;3755;59.316;18.092;2023-08-06T06:14:03;17.00;99.90
7427;DHT22;3755;59.316;18.092;2023-08-06T06:16:30;17.10;99.90
7427;DHT22;3755;59.316;18.092;2023-08-06T06:18:57;17.30;99.90
7427;DHT22;3755;59.316;18.092;2023-08-06T06:21:24;17.40;99.90
7427;DHT22;3755;59.316;18.092;2023-08-06T06:23:51;17.70;99.90
7427;DHT22;3755;59.316;18.092;2023-08-06T06:26:18;17.80;99.90
7427;DHT22;3755;59.316;18.092;2023-08-06T06:28:47;17.70;99.90
7427;DHT22;3755;59.316;18.092;2023-08-06T06:31:14;17.80;99.90
7427;DHT22;3755;59.316;18.092;2023-08-06T06:33:41;17.90;99.90
7427;DHT22;3755;59.316;18.092;2023-08-06T06:36:08;17.90;99.90
7427;DHT22;3755;59.316;18.092;2023-08-06T06:38:35;18.00;99.90
7427;DHT22;3755;59.316;18.092;2023-08-06T06:41:02;18.10;99.90
7427;DHT22;3755;59.316;18.092;2023-08-06T06:43:30;18.20;99.90
7427;DHT22;3755;59.316;18.092;2023-08-06T06:45:59;18.30;99.90
7427;DHT22;3755;59.316;18.092;2023-08-06T06:48:27;18.40;99.90
7427;DHT22;3755;59.316;18.092;2023-08-06T06:50:54;18.50;99.90
7427;DHT22;3755;59.316;18.092;2023-08-06T06:53:21;18.60;99.90
7427;DHT22;3755;59.316;18.092;2023-08-06T06:55:52;18.70;99.90
7427;DHT22;3755;59.316;18.092;2023-08-06T06:58:20;18.70;99.90
7427;DHT22;3755;59.316;18.092;2023-08-06T07:00:47;18.50;99.90
7427;DHT22;3755;59.316;18.092;2023-08-06T07:03:16;18.60;99.90
7427;DHT22;3755;59.316;18.092;2023-08-06T07:05:44;18.50;99.90
7427;DHT22;3755;59.316;18.092;2023-08-06T07:08:11;18.40;99.90
7427;DHT22;3755;59.316;18.092;2023-08-06T07:10:41;18.40;99.90
7427;DHT22;3755;59.316;18.092;2023-08-06T07:13:08;18.40;99.90
7427;DHT22;3755;59.316;18.092;2023-08-06T07:15:35;18.40;99.90
7427;DHT22;3755;59.316;18.092;2023-08-06T07:18:03;18.50;99.90
7427;DHT22;3755;59.316;18.092;2023-08-06T07:20:31;18.50;99.90
7427;DHT22;3755;59.316;18.092;2023-08-06T07:23:00;18.60;99.90
7427;DHT22;3755;59.316;18.092;2023-08-06T07:25:27;18.80;99.90
7427;DHT22;3755;59.316;18.092;2023-08-06T07:27:55;19.00;99.90
7427;DHT22;3755;59.316;18.092;2023-08-06T07:30:22;18.80;99.90
7427;DHT22;3755;59.316;18.092;2023-08-06T07:32:49;18.80;99.90
7427;DHT22;3755;59.316;18.092;2023-08-06T07:35:16;18.90;99.90
7427;DHT22;3755;59.316;18.092;2023-08-06T07:37:45;18.90;99.90
7427;DHT22;3755;59.316;18.092;2023-08-06T07:40:12;19.00;99.90
7427;DHT22;3755;59.316;18.092;2023-08-06T07:42:40;19.10;99.90
7427;DHT22;3755;59.316;18.092;2023-08-06T07:45:08;19.10;99.90
7427;DHT22;3755;59.316;18.092;2023-08-06T07:47:36;19.10;99.90
7427;DHT22;3755;59.316;18.092;2023-08-06T07:50:03;19.10;99.90
7427;DHT22;3755;59.316;18.092;2023-08-06T07:52:31;19.20;99.90
7427;DHT22;3755;59.316;18.092;2023-08-06T07:54:59;19.20;99.90
7427;DHT22;3755;59.316;18.092;2023-08-06T07:57:30;19.30;99.90
7427;DHT22;3755;59.316;18.092;2023-08-06T07:59:57;19.40;99.90
7427;DHT22;3755;59.316;18.092;2023-08-06T08:02:24;19.40;99.90
7427;DHT22;3755;59.316;18.092;2023-08-06T08:04:52;19.50;99.90
7427;DHT22;3755;59.316;18.092;2023-08-06T08:07:19;19.50;99.90
7427;DHT22;3755;59.316;18.092;2023-08-06T08:09:46;19.40;99.90
7427;DHT22;3755;59.316;18.092;2023-08-06T08:12:15;19.50;99.90
7427;DHT22;3755;59.316;18.092;2023-08-06T08:14:42;19.60;99.90
7427;DHT22;3755;59.316;18.092;2023-08-06T08:17:11;19.50;99.90
7427;DHT22;3755;59.316;18.092;2023-08-06T08:19:39;19.50;99.90
7427;DHT22;3755;59.316;18.092;2023-08-06T08:22:06;19.50;99.90
7427;DHT22;3755;59.316;18.092;2023-08-06T08:24:33;19.50;99.90
7427;DHT22;3755;59.316;18.092;2023-08-06T08:27:01;19.70;99.90
7427;DHT22;3755;59.316;18.092;2023-08-06T08:29:29;19.50;99.90
7427;DHT22;3755;59.316;18.092;2023-08-06T08:31:56;19.50;99.90
7427;DHT22;3755;59.316;18.092;2023-08-06T08:34:23;19.50;99.90
7427;DHT22;3755;59.316;18.092;2023-08-06T08:36:51;19.50;99.90
7427;DHT22;3755;59.316;18.092;2023-08-06T08:39:18;19.60;99.90
7427;DHT22;3755;59.316;18.092;2023-08-06T08:41:45;19.60;99.90
7427;DHT22;3755;59.316;18.092;2023-08-06T08:44:14;19.60;99.90
7427;DHT22;3755;59.316;18.092;2023-08-06T08:46:45;19.70;99.90
7427;DHT22;3755;59.316;18.092;2023-08-06T08:49:13;19.60;99.90
7427;DHT22;3755;59.316;18.092;2023-08-06T08:51:41;19.50;99.90
7427;DHT22;3755;59.316;18.092;2023-08-06T08:54:08;19.40;99.90
7427;DHT22;3755;59.316;18.092;2023-08-06T08:56:37;19.30;99.90
7427;DHT22;3755;59.316;18.092;2023-08-06T08:59:04;19.10;99.90
7427;DHT22;3755;59.316;18.092;2023-08-06T09:01:32;19.00;99.90
7427;DHT22;3755;59.316;18.092;2023-08-06T09:04:01;18.80;99.90
7427;DHT22;3755;59.316;18.092;2023-08-06T09:06:30;18.80;99.90
7427;DHT22;3755;59.316;18.092;2023-08-06T09:09:06;19.00;99.90
7427;DHT22;3755;59.316;18.092;2023-08-06T09:11:39;19.10;99.90
7427;DHT22;3755;59.316;18.092;2023-08-06T09:14:07;19.30;99.90
7427;DHT22;3755;59.316;18.092;2023-08-06T09:16:35;18.90;99.90
7427;DHT22;3755;59.316;18.092;2023-08-06T09:19:08;18.80;99.90
7427;DHT22;3755;59.316;18.092;2023-08-06T09:21:37;18.70;99.90
7427;DHT22;3755;59.316;18.092;2023-08-06T09:24:08;18.60;99.90
7427;DHT22;3755;59.316;18.092;2023-08-06T09:26:37;18.60;99.90
7427;DHT22;3755;59.316;18.092;2023-08-06T09:29:05;18.60;99.90
7427;DHT22;3755;59.316;18.092;2023-08-06T09:31:33;18.60;99.90
7427;DHT22;3755;59.316;18.092;2023-08-06T09:34:01;18.60;99.90
7427;DHT22;3755;59.316;18.092;2023-08-06T09:36:30;18.60;99.90
7427;DHT22;3755;59.316;18.092;2023-08-06T09:38:57;18.40;99.90
7427;DHT22;3755;59.316;18.092;2023-08-06T09:41:27;18.40;99.90
7427;DHT22;3755;59.316;18.092;2023-08-06T09:43:55;18.20;99.90
7427;DHT22;3755;59.316;18.092;2023-08-06T09:46:22;18.20;99.90
7427;DHT22;3755;59.316;18.092;2023-08-06T09:48:50;18.20;99.90
7427;DHT22;3755;59.316;18.092;2023-08-06T09:51:17;18.10;99.90
7427;DHT22;3755;59.316;18.092;2023-08-06T09:53:47;18.20;99.90
7427;DHT22;3755;59.316;18.092;2023-08-06T09:56:17;18.20;99.90
7427;DHT22;3755;59.316;18.092;2023-08-06T09:58:46;18.30;99.90
7427;DHT22;3755;59.316;18.092;2023-08-06T10:01:14;18.40;99.90
7427;DHT22;3755;59.316;18.092;2023-08-06T10:03:42;18.50;99.90
7427;DHT22;3755;59.316;18.092;2023-08-06T10:06:10;18.40;99.90
7427;DHT22;3755;59.316;18.092;2023-08-06T10:08:37;18.10;99.90
7427;DHT22;3755;59.316;18.092;2023-08-06T10:11:09;18.00;99.90
7427;DHT22;3755;59.316;18.092;2023-08-06T10:13:37;18.10;99.90
7427;DHT22;3755;59.316;18.092;2023-08-06T10:16:05;18.00;99.90
7427;DHT22;3755;59.316;18.092;2023-08-06T10:18:33;17.80;99.90
7427;DHT22;3755;59.316;18.092;2023-08-06T10:21:00;17.80;99.90
7427;DHT22;3755;59.316;18.092;2023-08-06T10:23:33;17.70;99.90
7427;DHT22;3755;59.316;18.092;2023-08-06T10:26:03;17.70;99.90
7427;DHT22;3755;59.316;18.092;2023-08-06T10:28:37;17.60;99.90
7427;DHT22;3755;59.316;18.092;2023-08-06T10:31:04;17.50;99.90
7427;DHT22;3755;59.316;18.092;2023-08-06T10:33:42;17.40;99.90
7427;DHT22;3755;59.316;18.092;2023-08-06T10:36:10;17.40;99.90
7427;DHT22;3755;59.316;18.092;2023-08-06T10:38:44;17.40;99.90
7427;DHT22;3755;59.316;18.092;2023-08-06T10:41:16;17.50;99.90
7427;DHT22;3755;59.316;18.092;2023-08-06T10:43:47;17.40;99.90
7427;DHT22;3755;59.316;18.092;2023-08-06T10:46:22;17.40;99.90
7427;DHT22;3755;59.316;18.092;2023-08-06T10:48:50;17.50;99.90
7427;DHT22;3755;59.316;18.092;2023-08-06T10:51:17;17.40;99.90
7427;DHT22;3755;59.316;18.092;2023-08-06T10:53:46;17.50;99.90
7427;DHT22;3755;59.316;18.092;2023-08-06T10:56:13;17.50;99.90
7427;DHT22;3755;59.316;18.092;2023-08-06T10:58:41;17.60;99.90
7427;DHT22;3755;59.316;18.092;2023-08-06T11:01:10;17.60;99.90
7427;DHT22;3755;59.316;18.092;2023-08-06T11:03:37;17.50;99.90
7427;DHT22;3755;59.316;18.092;2023-08-06T11:06:07;17.40;99.90
7427;DHT22;3755;59.316;18.092;2023-08-06T11:08:35;17.30;99.90
7427;DHT22;3755;59.316;18.092;2023-08-06T11:11:09;17.30;99.90
7427;DHT22;3755;59.316;18.092;2023-08-06T11:13:37;17.40;99.90
7427;DHT22;3755;59.316;18.092;2023-08-06T11:16:05;17.40;99.90
7427;DHT22;3755;59.316;18.092;2023-08-06T11:18:34;17.20;99.90
7427;DHT22;3755;59.316;18.092;2023-08-06T11:21:01;17.30;99.90
7427;DHT22;3755;59.316;18.092;2023-08-06T11:23:29;17.10;99.90
7427;DHT22;3755;59.316;18.092;2023-08-06T11:25:56;17.10;99.90
7427;DHT22;3755;59.316;18.092;2023-08-06T11:28:24;17.10;99.90
7427;DHT22;3755;59.316;18.092;2023-08-06T11:30:51;17.00;99.90
7427;DHT22;3755;59.316;18.092;2023-08-06T11:33:20;17.10;99.90
7427;DHT22;3755;59.316;18.092;2023-08-06T11:35:49;17.00;99.90
7427;DHT22;3755;59.316;18.092;2023-08-06T11:38:17;17.00;99.90
7427;DHT22;3755;59.316;18.092;2023-08-06T11:40:44;17.00;99.90
7427;DHT22;3755;59.316;18.092;2023-08-06T11:43:12;17.00;99.90
7427;DHT22;3755;59.316;18.092;2023-08-06T11:45:40;16.90;99.90
7427;DHT22;3755;59.316;18.092;2023-08-06T11:48:07;16.90;99.90
7427;DHT22;3755;59.316;18.092;2023-08-06T11:50:37;16.80;99.90
7427;DHT22;3755;59.316;18.092;2023-08-06T11:53:06;16.80;99.90
7427;DHT22;3755;59.316;18.092;2023-08-06T11:55:33;16.70;99.90
7427;DHT22;3755;59.316;18.092;2023-08-06T11:58:03;16.70;99.90
7427;DHT22;3755;59.316;18.092;2023-08-06T12:00:31;16.70;99.90
7427;DHT22;3755;59.316;18.092;2023-08-06T12:02:58;16.70;99.90
7427;DHT22;3755;59.316;18.092;2023-08-06T12:05:30;16.70;99.90
7427;DHT22;3755;59.316;18.092;2023-08-06T12:07:59;16.60;99.90
7427;DHT22;3755;59.316;18.092;2023-08-06T12:10:29;16.60;99.90
7427;DHT22;3755;59.316;18.092;2023-08-06T12:12:56;16.60;99.90
7427;DHT22;3755;59.316;18.092;2023-08-06T12:15:24;16.60;99.90
7427;DHT22;3755;59.316;18.092;2023-08-06T12:17:51;16.60;99.90
7427;DHT22;3755;59.316;18.092;2023-08-06T12:20:18;16.70;99.90
7427;DHT22;3755;59.316;18.092;2023-08-06T12:22:46;16.70;99.90
7427;DHT22;3755;59.316;18.092;2023-08-06T12:25:13;16.70;99.90
7427;DHT22;3755;59.316;18.092;2023-08-06T12:27:43;16.70;99.90
7427;DHT22;3755;59.316;18.092;2023-08-06T12:30:12;16.60;99.90
7427;DHT22;3755;59.316;18.092;2023-08-06T12:32:39;16.60;99.90
7427;DHT22;3755;59.316;18.092;2023-08-06T12:35:08;16.60;99.90
7427;DHT22;3755;59.316;18.092;2023-08-06T12:37:35;16.70;99.90
7427;DHT22;3755;59.316;18.092;2023-08-06T12:40:07;16.60;99.90
7427;DHT22;3755;59.316;18.092;2023-08-06T12:42:35;16.60;99.90
7427;DHT22;3755;59.316;18.092;2023-08-06T12:45:04;16.60;99.90
7427;DHT22;3755;59.316;18.092;2023-08-06T12:47:31;16.60;99.90
7427;DHT22;3755;59.316;18.092;2023-08-06T12:50:00;16.60;99.90
7427;DHT22;3755;59.316;18.092;2023-08-06T12:52:27;16.60;99.90
7427;DHT22;3755;59.316;18.092;2023-08-06T12:54:55;16.60;99.90
7427;DHT22;3755;59.316;18.092;2023-08-06T12:57:22;16.60;99.90
7427;DHT22;3755;59.316;18.092;2023-08-06T12:59:49;16.60;99.90
7427;DHT22;3755;59.316;18.092;2023-08-06T13:02:18;16.60;99.90
7427;DHT22;3755;59.316;18.092;2023-08-06T13:04:46;16.60;99.90
7427;DHT22;3755;59.316;18.092;2023-08-06T13:07:13;16.60;99.90
7427;DHT22;3755;59.316;18.092;2023-08-06T13:09:40;16.70;99.90
7427;DHT22;3755;59.316;18.092;2023-08-06T13:12:07;16.70;99.90
7427;DHT22;3755;59.316;18.092;2023-08-06T13:14:35;16.60;99.90
7427;DHT22;3755;59.316;18.092;2023-08-06T13:17:02;16.60;99.90
7427;DHT22;3755;59.316;18.092;2023-08-06T13:19:33;16.60;99.90
7427;DHT22;3755;59.316;18.092;2023-08-06T13:22:02;16.60;99.90
7427;DHT22;3755;59.316;18.092;2023-08-06T13:24:31;16.50;99.90
7427;DHT22;3755;59.316;18.092;2023-08-06T13:26:58;16.50;99.90
7427;DHT22;3755;59.316;18.092;2023-08-06T13:29:26;16.50;99.90
7427;DHT22;3755;59.316;18.092;2023-08-06T13:31:54;16.50;99.90
7427;DHT22;3755;59.316;18.092;2023-08-06T13:34:21;16.40;99.90
7427;DHT22;3755;59.316;18.092;2023-08-06T13:36:50;16.40;99.90
7427;DHT22;3755;59.316;18.092;2023-08-06T13:39:17;16.40;99.90
7427;DHT22;3755;59.316;18.092;2023-08-06T13:41:45;16.40;99.90
7427;DHT22;3755;59.316;18.092;2023-08-06T13:44:12;16.40;99.90
7427;DHT22;3755;59.316;18.092;2023-08-06T13:46:41;16.40;99.90
7427;DHT22;3755;59.316;18.092;2023-08-06T13:49:09;16.30;99.90
7427;DHT22;3755;59.316;18.092;2023-08-06T13:51:36;16.30;99.90
7427;DHT22;3755;59.316;18.092;2023-08-06T13:54:05;16.30;99.90
7427;DHT22;3755;59.316;18.092;2023-08-06T13:56:34;16.30;99.90
7427;DHT22;3755;59.316;18.092;2023-08-06T13:59:03;16.30;99.90
7427;DHT22;3755;59.316;18.092;2023-08-06T14:01:30;16.30;99.90
7427;DHT22;3755;59.316;18.092;2023-08-06T14:03:57;16.30;99.90
7427;DHT22;3755;59.316;18.092;2023-08-06T14:06:24;16.40;99.90
7427;DHT22;3755;59.316;18.092;2023-08-06T14:08:51;16.50;99.90
7427;DHT22;3755;59.316;18.092;2023-08-06T14:11:20;16.40;99.90
7427;DHT22;3755;59.316;18.092;2023-08-06T14:13:47;16.40;99.90
7427;DHT22;3755;59.316;18.092;2023-08-06T14:16:14;16.40;99.90
7427;DHT22;3755;59.316;18.092;2023-08-06T14:18:41;16.40;99.90
7427;DHT22;3755;59.316;18.092;2023-08-06T14:21:09;16.40;99.90
7427;DHT22;3755;59.316;18.092;2023-08-06T14:23:36;16.40;99.90
7427;DHT22;3755;59.316;18.092;2023-08-06T14:26:03;16.40;99.90
7427;DHT22;3755;59.316;18.092;2023-08-06T14:28:32;16.40;99.90
7427;DHT22;3755;59.316;18.092;2023-08-06T14:30:59;16.40;99.90
7427;DHT22;3755;59.316;18.092;2023-08-06T14:33:26;16.40;99.90
7427;DHT22;3755;59.316;18.092;2023-08-06T14:35:53;16.40;99.90
7427;DHT22;3755;59.316;18.092;2023-08-06T14:38:20;16.40;99.90
7427;DHT22;3755;59.316;18.092;2023-08-06T14:40:47;16.40;99.90
7427;DHT22;3755;59.316;18.092;2023-08-06T14:43:14;16.30;99.90
7427;DHT22;3755;59.316;18.092;2023-08-06T14:45:45;16.30;99.90
7427;DHT22;3755;59.316;18.092;2023-08-06T14:48:12;16.40;99.90
7427;DHT22;3755;59.316;18.092;2023-08-06T14:50:40;16.40;99.90
7427;DHT22;3755;59.316;18.092;2023-08-06T14:53:07;16.50;99.90
7427;DHT22;3755;59.316;18.092;2023-08-06T14:55:36;16.50;99.90
7427;DHT22;3755;59.316;18.092;2023-08-06T14:58:03;16.50;99.90
7427;DHT22;3755;59.316;18.092;2023-08-06T15:00:31;16.50;99.90
7427;DHT22;3755;59.316;18.092;2023-08-06T15:02:59;16.50;99.90
7427;DHT22;3755;59.316;18.092;2023-08-06T15:05:26;16.50;99.90
7427;DHT22;3755;59.316;18.092;2023-08-06T15:07:53;16.50;99.90
7427;DHT22;3755;59.316;18.092;2023-08-06T15:10:21;16.50;99.90
7427;DHT22;3755;59.316;18.092;2023-08-06T15:12:48;16.50;99.90
7427;DHT22;3755;59.316;18.092;2023-08-06T15:15:16;16.50;99.90
7427;DHT22;3755;59.316;18.092;2023-08-06T15:17:44;16.60;99.90
7427;DHT22;3755;59.316;18.092;2023-08-06T15:20:12;16.60;99.90
7427;DHT22;3755;59.316;18.092;2023-08-06T15:22:40;16.60;99.90
7427;DHT22;3755;59.316;18.092;2023-08-06T15:25:07;16.50;99.90
7427;DHT22;3755;59.316;18.092;2023-08-06T15:27:34;16.50;99.90
7427;DHT22;3755;59.316;18.092;2023-08-06T15:30:02;16.60;99.90
7427;DHT22;3755;59.316;18.092;2023-08-06T15:32:29;16.60;99.90
7427;DHT22;3755;59.316;18.092;2023-08-06T15:34:56;16.50;99.90
7427;DHT22;3755;59.316;18.092;2023-08-06T15:37:25;16.60;99.90
7427;DHT22;3755;59.316;18.092;2023-08-06T15:39:52;16.60;99.90
7427;DHT22;3755;59.316;18.092;2023-08-06T15:42:19;16.50;99.90
7427;DHT22;3755;59.316;18.092;2023-08-06T15:44:46;16.50;99.90
7427;DHT22;3755;59.316;18.092;2023-08-06T15:47:13;16.60;99.90
7427;DHT22;3755;59.316;18.092;2023-08-06T15:49:41;16.60;99.90